createdAt,value
2022-10-04T00:01:55.068Z,5.82
2022-10-04T00:05:18.972Z,5.90
2022-10-04T00:08:28.471Z,5.90
2022-10-04T00:11:40.708Z,4.68
2022-10-04T00:14:41.252Z,5.72
2022-10-04T00:17:13.539Z,5.50
2022-10-04T00:19:44.205Z,5.75
2022-10-04T00:22:14.400Z,5.50
2022-10-04T00:25:10.102Z,5.25
2022-10-04T00:27:42.965Z,6.18
2022-10-04T00:30:16.924Z,6.43
2022-10-04T00:33:08.723Z,6.25
2022-10-04T00:35:40.307Z,5.60
2022-10-04T00:38:11.366Z,5.10
2022-10-04T00:40:49.648Z,5.18
2022-10-04T00:43:21.794Z,5.38
2022-10-04T00:46:19.426Z,4.72
2022-10-04T00:48:56.001Z,5.22
2022-10-04T00:51:43.188Z,4.57
2022-10-04T00:54:38.251Z,4.97
2022-10-04T00:57:19.577Z,5.15
2022-10-04T00:59:56.403Z,4.82
2022-10-04T01:02:46.171Z,4.30
2022-10-04T01:05:40.440Z,4.80
2022-10-04T01:08:36.445Z,4.22
2022-10-04T01:11:11.161Z,3.88
2022-10-04T01:13:45.680Z,3.90
2022-10-04T01:16:23.265Z,4.03
2022-10-04T01:18:59.032Z,3.70
2022-10-04T01:21:44.513Z,3.83
2022-10-04T01:24:22.960Z,3.38
2022-10-04T01:26:50.862Z,3.58
2022-10-04T01:29:27.826Z,3.28
2022-10-04T01:32:05.792Z,3.88
2022-10-04T01:34:33.169Z,3.15
2022-10-04T01:37:17.562Z,3.78
2022-10-04T01:39:45.048Z,3.22
2022-10-04T01:42:24.072Z,3.55
2022-10-04T01:45:13.424Z,3.75
2022-10-04T01:48:11.528Z,3.60
2022-10-04T01:50:55.317Z,3.70
2022-10-04T01:53:40.317Z,3.83
2022-10-04T01:56:27.898Z,3.70
2022-10-04T01:59:12.978Z,3.45
2022-10-04T02:05:14.839Z,3.70
2022-10-04T02:08:08.714Z,3.25
2022-10-04T02:10:47.697Z,3.53
2022-10-04T02:13:52.766Z,3.33
2022-10-04T02:16:38.668Z,3.75
2022-10-04T02:19:20.263Z,3.05
2022-10-04T02:22:09.881Z,2.97
2022-10-04T02:24:53.043Z,3.03
2022-10-04T02:27:37.592Z,3.03
2022-10-04T02:33:21.422Z,2.92
2022-10-04T02:36:10.212Z,2.75
2022-10-04T02:39:19.107Z,3.13
2022-10-04T02:42:32.323Z,2.97
2022-10-04T02:45:28.201Z,2.70
2022-10-04T02:48:15.934Z,2.50
2022-10-04T02:54:14.218Z,2.75
2022-10-04T02:57:04.490Z,3.10
2022-10-04T02:59:51.172Z,2.70
2022-10-04T03:02:48.453Z,2.60
2022-10-04T03:05:45.596Z,2.80
2022-10-04T03:08:24.961Z,3.50
2022-10-04T03:11:08.409Z,2.58
2022-10-04T03:13:44.682Z,2.80
2022-10-04T03:16:36.044Z,2.95
2022-10-04T03:19:10.875Z,2.63
2022-10-04T03:21:58.863Z,2.58
2022-10-04T03:25:01.139Z,2.78
2022-10-04T03:27:53.290Z,2.70
2022-10-04T03:30:36.528Z,3.03
2022-10-04T03:33:27.842Z,3.22
2022-10-04T03:36:20.502Z,2.40
2022-10-04T03:39:06.711Z,2.78
2022-10-04T03:41:44.152Z,2.78
2022-10-04T03:44:19.799Z,2.70
2022-10-04T03:46:56.690Z,2.47
2022-10-04T03:50:09.102Z,2.80
2022-10-04T03:53:05.626Z,2.58
2022-10-04T03:56:04.430Z,2.27
2022-10-04T03:58:42.594Z,2.92
2022-10-04T04:01:42.948Z,2.35
2022-10-04T04:04:27.267Z,2.60
2022-10-04T04:07:20.619Z,3.03
2022-10-04T04:10:11.098Z,2.28
2022-10-04T04:12:59.016Z,2.67
2022-10-04T04:15:46.730Z,2.65
2022-10-04T04:18:34.429Z,2.90
2022-10-04T04:21:17.349Z,2.72
2022-10-04T04:24:11.569Z,2.40
2022-10-04T04:26:49.622Z,2.75
2022-10-04T04:29:54.021Z,2.47
2022-10-04T04:32:41.319Z,3.00
2022-10-04T04:35:34.111Z,2.33
2022-10-04T04:38:20.041Z,2.97
2022-10-04T04:41:04.000Z,2.80
2022-10-04T04:43:43.306Z,2.92
2022-10-04T04:49:28.404Z,2.70
2022-10-04T04:51:57.853Z,2.45
2022-10-04T04:54:32.158Z,2.50
2022-10-04T04:57:07.659Z,2.03
2022-10-04T04:59:37.886Z,2.67
2022-10-04T05:02:07.892Z,2.55
2022-10-04T05:04:41.497Z,2.80
2022-10-04T05:07:17.449Z,2.35
2022-10-04T05:09:54.548Z,2.70
2022-10-04T05:12:33.648Z,2.58
2022-10-04T05:15:11.110Z,2.58
2022-10-04T05:17:43.590Z,2.50
2022-10-04T05:20:27.379Z,2.67
2022-10-04T05:22:59.847Z,2.08
2022-10-04T05:28:33.233Z,2.10
2022-10-04T05:31:28.578Z,1.95
2022-10-04T05:37:53.198Z,2.03
2022-10-04T05:41:07.941Z,1.80
2022-10-04T05:44:01.813Z,1.80
2022-10-04T05:46:45.704Z,1.65
2022-10-04T05:53:04.810Z,1.98
2022-10-04T05:55:39.945Z,1.60
2022-10-04T05:58:48.508Z,1.77
2022-10-04T06:09:54.248Z,1.63
2022-10-04T06:13:22.112Z,1.75
2022-10-04T06:16:29.119Z,1.65
2022-10-04T06:20:20.009Z,1.65
2022-10-04T06:23:05.948Z,1.77
2022-10-04T06:29:20.009Z,1.75
2022-10-04T06:32:10.261Z,1.52
2022-10-04T06:35:19.779Z,1.40
2022-10-04T06:38:12.474Z,1.70
2022-10-04T06:41:15.244Z,1.40
2022-10-04T06:44:15.756Z,1.92
2022-10-04T06:46:58.105Z,1.70
2022-10-04T06:50:02.049Z,1.40
2022-10-04T06:52:54.892Z,1.60
2022-10-04T06:56:02.686Z,1.60
2022-10-04T06:59:12.694Z,1.35
2022-10-04T07:02:29.965Z,1.40
2022-10-04T07:05:22.071Z,1.58
2022-10-04T07:08:46.081Z,1.52
2022-10-04T07:11:44.906Z,1.50
2022-10-04T07:14:27.521Z,1.42
2022-10-04T07:17:03.284Z,1.55
2022-10-04T07:19:42.247Z,1.45
2022-10-04T07:22:22.484Z,1.35
2022-10-04T07:25:16.931Z,1.80
2022-10-04T07:28:56.110Z,1.40
2022-10-04T07:31:34.923Z,1.40
2022-10-04T07:34:27.089Z,1.30
2022-10-04T07:37:06.334Z,1.40
2022-10-04T07:39:58.266Z,1.50
2022-10-04T07:43:01.268Z,1.50
2022-10-04T07:45:39.961Z,1.60
2022-10-04T07:48:26.398Z,1.92
2022-10-04T07:51:10.210Z,1.50
2022-10-04T07:53:54.994Z,1.50
2022-10-04T07:56:54.800Z,1.50
2022-10-04T07:59:45.983Z,1.42
2022-10-04T08:02:52.765Z,1.30
2022-10-04T08:05:33.132Z,1.23
2022-10-04T08:08:09.362Z,1.38
2022-10-04T08:10:57.248Z,1.67
2022-10-04T08:13:34.814Z,1.27
2022-10-04T08:16:17.091Z,0.90
2022-10-04T08:19:10.290Z,1.10
2022-10-04T08:21:47.720Z,1.30
2022-10-04T08:24:23.277Z,1.33
2022-10-04T08:26:50.772Z,1.23
2022-10-04T08:29:44.843Z,1.30
2022-10-04T08:32:24.248Z,1.30
2022-10-04T08:34:58.136Z,1.40
2022-10-04T08:37:46.649Z,1.13
2022-10-04T08:40:44.912Z,1.20
2022-10-04T08:43:57.031Z,1.48
2022-10-04T08:46:24.170Z,1.13
2022-10-04T08:49:16.780Z,1.20
2022-10-04T08:52:01.290Z,1.10
2022-10-04T08:54:37.580Z,1.23
2022-10-04T08:57:32.075Z,1.10
2022-10-04T09:00:23.286Z,1.20
2022-10-04T09:03:26.827Z,1.27
2022-10-04T09:06:22.207Z,1.30
2022-10-04T09:09:26.627Z,1.08
2022-10-04T09:12:03.870Z,1.10
2022-10-04T09:15:15.196Z,1.20
2022-10-04T09:18:18.221Z,1.00
2022-10-04T09:20:54.524Z,1.13
2022-10-04T09:23:31.916Z,1.20
2022-10-04T09:26:25.900Z,1.10
2022-10-04T09:29:05.090Z,1.10
2022-10-04T09:31:45.685Z,1.17
2022-10-04T09:34:23.276Z,0.80
2022-10-04T09:37:01.800Z,0.98
2022-10-04T09:39:53.786Z,1.10
2022-10-04T09:42:21.725Z,1.20
2022-10-04T09:44:53.457Z,1.02
2022-10-04T09:47:31.425Z,1.10
2022-10-04T09:50:31.627Z,0.80
2022-10-04T09:53:56.528Z,0.82
2022-10-04T09:56:41.285Z,1.00
2022-10-04T09:59:12.690Z,0.90
2022-10-04T10:01:58.528Z,0.95
2022-10-04T10:04:34.988Z,0.95
2022-10-04T10:07:21.505Z,1.00
2022-10-04T10:10:11.999Z,0.80
2022-10-04T10:13:05.519Z,0.70
2022-10-04T10:15:56.801Z,0.80
2022-10-04T10:18:37.662Z,1.00
2022-10-04T10:21:14.635Z,1.08
2022-10-04T10:24:03.487Z,0.70
2022-10-04T10:26:44.028Z,0.60
2022-10-04T10:29:20.460Z,0.70
2022-10-04T10:31:57.304Z,0.70
2022-10-04T10:34:32.315Z,0.60
2022-10-04T10:37:25.318Z,0.70
2022-10-04T10:40:17.108Z,0.52
2022-10-04T10:42:50.112Z,0.63
2022-10-04T10:45:23.370Z,0.70
2022-10-04T10:48:18.268Z,0.65
2022-10-04T10:51:10.833Z,0.90
2022-10-04T10:53:50.139Z,0.70
2022-10-04T10:56:46.249Z,0.60
2022-10-04T10:59:43.656Z,0.90
2022-10-04T11:02:50.333Z,0.70
2022-10-04T11:05:48.932Z,0.80
2022-10-04T11:08:48.857Z,0.70
2022-10-04T11:11:21.842Z,0.70
2022-10-04T11:14:27.578Z,0.70
2022-10-04T11:20:33.971Z,0.80
2022-10-04T11:23:28.274Z,0.70
2022-10-04T11:26:33.101Z,0.70
2022-10-04T11:29:29.136Z,0.52
2022-10-04T11:32:44.679Z,0.63
2022-10-04T11:35:37.587Z,0.80
2022-10-04T11:38:33.596Z,0.80
2022-10-04T11:41:39.704Z,0.75
2022-10-04T11:44:37.547Z,0.80
2022-10-04T11:47:22.383Z,0.80
2022-10-04T11:50:33.314Z,0.85
2022-10-04T11:53:28.449Z,0.77
2022-10-04T11:56:48.479Z,0.93
2022-10-04T12:02:56.956Z,0.90
2022-10-04T12:06:07.313Z,0.85
2022-10-04T12:08:53.697Z,0.80
2022-10-04T12:12:04.145Z,1.20
2022-10-04T12:15:00.359Z,0.85
2022-10-04T12:17:43.072Z,1.10
2022-10-04T12:20:40.618Z,0.90
2022-10-04T12:23:33.213Z,1.20
2022-10-04T12:26:39.163Z,1.00
2022-10-04T12:29:58.078Z,1.10
2022-10-04T12:32:43.127Z,0.98
2022-10-04T12:35:22.967Z,0.90
2022-10-04T12:38:25.010Z,0.98
2022-10-04T12:41:32.712Z,0.88
2022-10-04T12:44:11.536Z,1.00
2022-10-04T12:47:18.980Z,1.30
2022-10-04T12:50:22.178Z,0.98
2022-10-04T12:53:32.389Z,1.00
2022-10-04T12:56:37.449Z,1.95
2022-10-04T12:59:21.562Z,1.13
2022-10-04T13:02:09.006Z,1.20
2022-10-04T13:05:02.527Z,1.77
2022-10-04T13:07:39.546Z,0.98
2022-10-04T13:10:45.038Z,0.93
2022-10-04T13:13:28.215Z,0.95
2022-10-04T13:17:29.586Z,1.13
2022-10-04T13:20:56.562Z,1.15
2022-10-04T13:23:57.419Z,1.05
2022-10-04T13:27:27.660Z,0.90
2022-10-04T13:34:02.040Z,1.42
2022-10-04T13:37:20.082Z,1.00
2022-10-04T13:40:26.253Z,1.10
2022-10-04T13:43:25.189Z,0.85
2022-10-04T13:46:10.621Z,0.93
2022-10-04T13:49:08.170Z,1.27
2022-10-04T13:52:20.593Z,0.90
2022-10-04T14:03:25.116Z,0.85
2022-10-04T14:09:45.121Z,0.95
2022-10-04T14:12:36.602Z,0.90
2022-10-04T14:15:12.411Z,0.60
2022-10-04T14:18:14.566Z,0.65
2022-10-04T14:21:18.182Z,0.70
2022-10-04T14:23:56.218Z,0.80
2022-10-04T14:26:39.294Z,0.60
2022-10-04T14:29:18.959Z,0.85
2022-10-04T14:32:02.709Z,0.80
2022-10-04T14:34:54.835Z,0.75
2022-10-04T14:37:31.614Z,0.73
2022-10-04T14:40:29.369Z,0.70
2022-10-04T14:43:19.376Z,0.77
2022-10-04T14:46:07.597Z,0.80
2022-10-04T14:49:10.737Z,0.70
2022-10-04T14:52:26.126Z,0.85
2022-10-04T14:55:05.516Z,0.90
2022-10-04T15:05:10.397Z,0.70
2022-10-04T15:16:14.511Z,0.90
2022-10-04T15:19:34.100Z,1.20
2022-10-04T15:22:55.256Z,0.90
2022-10-04T15:26:13.760Z,0.80
2022-10-04T15:29:01.092Z,0.70
2022-10-04T15:31:56.233Z,1.02
2022-10-04T15:35:07.884Z,0.80
2022-10-04T15:41:56.660Z,0.70
2022-10-04T15:45:22.225Z,1.10
2022-10-04T15:47:54.400Z,1.00
2022-10-04T15:51:01.539Z,0.93
2022-10-04T15:54:06.110Z,0.90
2022-10-04T16:00:34.050Z,0.90
2022-10-04T16:03:31.608Z,1.20
2022-10-04T16:06:48.885Z,0.85
2022-10-04T16:09:39.023Z,0.93
2022-10-04T16:15:46.424Z,1.00
2022-10-04T16:21:54.999Z,1.10
2022-10-04T16:24:22.547Z,0.95
2022-10-04T16:26:54.289Z,1.08
2022-10-04T16:30:14.531Z,1.00
2022-10-04T16:33:26.448Z,0.90
2022-10-04T16:36:26.826Z,0.75
2022-10-04T16:42:16.990Z,1.20
2022-10-04T16:45:42.310Z,1.10
2022-10-04T16:48:46.887Z,0.90
2022-10-04T16:51:33.933Z,0.90
2022-10-04T16:54:27.193Z,0.80
2022-10-04T16:56:56.767Z,1.13
2022-10-04T17:00:09.865Z,1.02
2022-10-04T17:05:49.287Z,0.90
2022-10-04T17:08:16.463Z,0.95
2022-10-04T17:10:49.789Z,1.00
2022-10-04T17:13:44.234Z,0.90
2022-10-04T17:16:44.362Z,1.00
2022-10-04T17:22:47.484Z,1.02
2022-10-04T17:25:30.540Z,1.23
2022-10-04T17:28:31.914Z,1.00
2022-10-04T17:31:43.236Z,1.10
2022-10-04T17:34:33.472Z,0.90
2022-10-04T17:39:59.067Z,1.80
2022-10-04T17:42:43.841Z,1.00
2022-10-04T17:45:20.461Z,1.35
2022-10-04T17:48:12.361Z,0.80
2022-10-04T17:51:30.046Z,1.10
2022-10-04T17:54:22.716Z,0.80
2022-10-04T17:57:03.472Z,0.90
2022-10-04T17:59:38.422Z,1.15
2022-10-04T18:02:19.401Z,1.02
2022-10-04T18:05:18.035Z,1.17
2022-10-04T18:07:49.806Z,0.90
2022-10-04T18:10:28.482Z,1.00
2022-10-04T18:13:05.646Z,1.00
2022-10-04T18:15:44.214Z,1.10
2022-10-04T18:18:16.867Z,0.90
2022-10-04T18:21:08.623Z,1.20
2022-10-04T18:23:41.931Z,0.82
2022-10-04T18:26:18.547Z,0.98
2022-10-04T18:28:49.437Z,1.10
2022-10-04T18:31:41.486Z,1.05
2022-10-04T18:34:28.217Z,1.15
2022-10-04T18:37:35.068Z,1.10
2022-10-04T18:40:18.702Z,1.10
2022-10-04T18:42:59.062Z,1.15
2022-10-04T18:45:34.352Z,1.20
2022-10-04T18:48:02.990Z,0.95
2022-10-04T18:50:33.408Z,1.10
2022-10-04T18:53:01.378Z,1.10
2022-10-04T18:55:46.686Z,1.20
2022-10-04T18:59:02.853Z,1.00
2022-10-04T19:02:03.830Z,0.80
2022-10-04T19:04:45.968Z,1.35
2022-10-04T19:07:32.587Z,0.95
2022-10-04T19:10:27.434Z,1.13
2022-10-04T19:13:10.058Z,1.13
2022-10-04T19:15:55.520Z,1.10
2022-10-04T19:18:41.717Z,1.33
2022-10-04T19:21:31.243Z,1.00
2022-10-04T19:24:36.503Z,1.38
2022-10-04T19:27:06.725Z,1.10
2022-10-04T19:30:00.334Z,1.13
2022-10-04T19:33:01.222Z,1.10
2022-10-04T19:35:40.973Z,1.00
2022-10-04T19:38:23.067Z,1.35
2022-10-04T19:40:54.567Z,1.27
2022-10-04T19:43:34.079Z,1.13
2022-10-04T19:46:32.824Z,1.48
2022-10-04T19:49:00.046Z,1.23
2022-10-04T19:51:28.747Z,1.52
2022-10-04T19:54:10.939Z,1.30
2022-10-04T19:56:49.523Z,1.10
2022-10-04T19:59:18.704Z,1.10
2022-10-04T20:01:46.249Z,1.30
2022-10-04T20:04:36.219Z,1.30
2022-10-04T20:07:24.359Z,1.13
2022-10-04T20:09:52.724Z,1.00
2022-10-04T20:12:35.752Z,1.00
2022-10-04T20:15:20.079Z,1.20
2022-10-04T20:17:49.652Z,1.70
2022-10-04T20:20:37.538Z,1.10
2022-10-04T20:23:05.509Z,1.25
2022-10-04T20:26:08.521Z,1.10
2022-10-04T20:28:40.204Z,1.10
2022-10-04T20:31:12.608Z,1.02
2022-10-04T20:33:43.054Z,1.30
2022-10-04T20:36:12.519Z,1.10
2022-10-04T20:38:44.994Z,1.20
2022-10-04T20:41:53.902Z,1.35
2022-10-04T20:44:56.152Z,1.30
2022-10-04T20:47:43.711Z,1.35
2022-10-04T20:50:12.174Z,1.30
2022-10-04T20:52:53.634Z,1.40
2022-10-04T20:55:32.904Z,1.20
2022-10-04T20:58:24.740Z,2.95
2022-10-04T21:00:56.647Z,3.30
2022-10-04T21:03:24.347Z,2.40
2022-10-04T21:06:17.214Z,2.50
2022-10-04T21:08:45.066Z,1.85
2022-10-04T21:11:20.186Z,1.10
2022-10-04T21:13:52.337Z,1.65
2022-10-04T21:17:02.408Z,4.30
2022-10-04T21:19:36.144Z,1.70
2022-10-04T21:22:07.375Z,1.20
2022-10-04T21:24:38.422Z,1.30
2022-10-04T21:27:08.852Z,1.58
2022-10-04T21:29:42.322Z,2.22
2022-10-04T21:32:09.707Z,1.50
2022-10-04T21:34:54.174Z,1.23
2022-10-04T21:37:22.233Z,1.42
2022-10-04T21:39:49.514Z,3.45
2022-10-04T21:42:16.728Z,1.38
2022-10-04T21:44:44.252Z,1.10
2022-10-04T21:47:14.457Z,2.10
2022-10-04T21:49:41.615Z,1.30
2022-10-04T21:52:11.955Z,1.92
2022-10-04T21:54:39.038Z,1.15
2022-10-04T21:57:06.137Z,1.83
2022-10-04T21:59:33.490Z,1.27
2022-10-04T22:02:03.976Z,1.20
2022-10-04T22:04:34.224Z,1.60
2022-10-04T22:09:32.955Z,1.27
2022-10-04T22:12:01.812Z,0.98
2022-10-04T22:14:32.182Z,1.30
2022-10-04T22:17:02.327Z,2.20
2022-10-04T22:19:32.072Z,2.85
2022-10-04T22:21:59.863Z,1.80
2022-10-04T22:24:27.061Z,1.10
2022-10-04T22:26:54.565Z,2.03
2022-10-04T22:29:21.780Z,1.63
2022-10-04T22:31:52.443Z,1.48
2022-10-04T22:34:20.982Z,1.10
2022-10-04T22:36:49.258Z,1.40
2022-10-04T22:39:18.115Z,1.15
2022-10-04T22:41:49.799Z,1.10
2022-10-04T22:44:25.663Z,1.40
2022-10-04T22:47:02.320Z,1.20
2022-10-04T22:49:34.500Z,1.23
2022-10-04T22:52:03.600Z,1.30
2022-10-04T22:54:34.788Z,1.40
2022-10-04T22:57:02.153Z,1.55
2022-10-04T22:59:38.340Z,1.10
2022-10-04T23:02:24.230Z,1.45
2022-10-04T23:05:10.849Z,1.00
2022-10-04T23:07:38.828Z,1.50
2022-10-04T23:10:06.594Z,1.02
2022-10-04T23:12:34.002Z,1.23
2022-10-04T23:15:06.418Z,1.15
2022-10-04T23:17:38.719Z,1.40
2022-10-04T23:20:14.181Z,1.38
2022-10-04T23:22:52.696Z,1.92
2022-10-04T23:25:32.388Z,1.55
2022-10-04T23:28:02.770Z,1.10
2022-10-04T23:30:30.018Z,1.58
2022-10-04T23:32:58.127Z,1.80
2022-10-04T23:35:26.508Z,2.42
2022-10-04T23:37:53.761Z,1.90
2022-10-04T23:40:24.752Z,1.40
2022-10-04T23:42:54.102Z,1.55
2022-10-04T23:45:25.083Z,1.07
2022-10-04T23:47:54.408Z,1.67
2022-10-04T23:50:34.089Z,1.50
2022-10-04T23:53:04.843Z,1.10
2022-10-04T23:55:42.566Z,1.25
2022-10-04T23:58:17.819Z,1.27
